ADDS METAR Data INFO
IDs: Format: Raw Decoded Include TAF

Data at: 1811 UTC 18 Feb 2018

KMNE 181755Z AUTO 12006KT 10SM OVC006 11/09 A3018 RMK AO2 T01100093 10110 20090
KMNE 181735Z AUTO 00000KT 10SM OVC006 11/09 A3019 RMK AO2 T01080092
KMNE 181715Z AUTO 11004KT 10SM OVC006 11/09 A3019 RMK AO2 T01060090
KMNE 181655Z AUTO 13006KT 10SM OVC006 10/09 A3020 RMK AO2 T01020087
KMNE 181635Z AUTO 12005KT 10SM OVC006 10/09 A3020 RMK AO2 T01000085
KMNE 181615Z AUTO 11007KT 10SM OVC006 10/08 A3020 RMK AO2 T00970083
KMNE 181555Z AUTO 10005KT 10SM OVC006 10/08 A3020 RMK AO2 T00970083
KMNE 181535Z AUTO 10007KT 10SM OVC006 10/08 A3020 RMK AO2 T00950082
KMNE 181515Z AUTO 10004KT 7SM OVC006 09/08 A3020 RMK AO2 T00930080
KMNE 181455Z AUTO 11003KT 5SM BR OVC006 09/08 A3020 RMK AO2 T00930080
KMNE 181435Z AUTO 09005KT 10SM OVC008 09/08 A3021 RMK AO2 T00920079
KMNE 181415Z AUTO 08005KT 10SM OVC008 09/08 A3020 RMK AO2 T00910077
KMNE 181355Z AUTO 09005KT 7SM OVC008 09/08 A3020 RMK AO2 T00900076
KMNE 181335Z AUTO 09006KT 10SM BKN008 BKN011 OVC018 09/08 A3020 RMK AO2 T00900075
KMNE 181315Z AUTO 10004KT 10SM BKN010 OVC018 09/08 A3020 RMK AO2 T00900075
KMNE 181255Z AUTO 08006KT 10SM -DZ OVC010 09/08 A3020 RMK AO2 T00900075
KMNE 181235Z AUTO 10003KT 10SM OVC010 09/07 A3021 RMK AO2 T00900073
KMNE 181215Z AUTO 09005KT 10SM OVC010 09/07 A3021 RMK AO2 T00910073
KMNE 181155Z AUTO 08007KT 10SM BKN010 OVC037 09/07 A3020 RMK AO2 70007 T00910073 10100 20091
KMNE 181135Z AUTO 09005KT 10SM OVC010 09/07 A3020 RMK AO2 T00910072
KMNE 181115Z AUTO 08006KT 10SM OVC010 09/07 A3021 RMK AO2 T00910072
KMNE 181055Z AUTO 08005KT 10SM OVC010 09/07 A3020 RMK AO2 T00920072
KMNE 181035Z AUTO 09006KT 10SM OVC012 09/07 A3020 RMK AO2 T00920072
KMNE 181015Z AUTO 09005KT 10SM OVC012 09/07 A3021 RMK AO2 T00930072
KMNE 180955Z AUTO 10006KT 10SM OVC012 09/07 A3020 RMK AO2 T00930072
KMNE 180935Z AUTO 07004KT 10SM OVC012 09/07 A3020 RMK AO2 T00930073
KMNE 180915Z AUTO 08006KT 10SM OVC012 09/08 A3020 RMK AO2 T00930075
KMNE 180855Z AUTO 09006KT 10SM OVC012 09/08 A3020 RMK AO2 T00930075
KMNE 180835Z AUTO 07004KT 10SM OVC012 09/08 A3020 RMK AO2 T00930075
KMNE 180815Z AUTO 08005KT 10SM OVC012 09/08 A3021 RMK AO2 T00930075
KMNE 180755Z AUTO 08006KT 10SM OVC012 09/08 A3021 RMK AO2 T00930075
KMNE 180735Z AUTO 08004KT 10SM OVC012 10/08 A3022 RMK AO2 T00950075
KMNE 180715Z AUTO 08006KT 10SM OVC012 10/08 A3021 RMK AO2 T00950075
KMNE 180655Z AUTO 08004KT 10SM OVC012 10/08 A3022 RMK AO2 T00970077
KMNE 180635Z AUTO 08006KT 10SM OVC012 10/08 A3021 RMK AO2 T00970077
KMNE 180615Z AUTO 07006KT 10SM OVC012 10/08 A3022 RMK AO2 T00990079
KMNE 180555Z AUTO 08006KT 10SM OVC012 10/08 A3022 RMK AO2 T01000080 10118 20099 401210095
KMNE 180535Z AUTO 06004KT 10SM OVC010 10/08 A3022 RMK AO2 T01000081
KMNE 180515Z AUTO 07005KT 10SM OVC008 10/08 A3022 RMK AO2 T01000083
KMNE 180455Z AUTO 05004KT 10SM OVC008 10/09 A3022 RMK AO2 T01020087
KMNE 180435Z AUTO 03003KT 10SM OVC008 10/09 A3022 RMK AO2 T01030087
KMNE 180415Z AUTO 02006KT 10SM OVC008 11/09 A3023 RMK AO2 T01050090
KMNE 180355Z AUTO 04003KT 10SM OVC008 11/10 A3023 RMK AO2 T01070095
KMNE 180335Z AUTO 00000KT 10SM OVC008 11/10 A3022 RMK AO2 T01100096
KMNE 180315Z AUTO 04003KT 10SM OVC010 11/10 A3022 RMK AO2 T01100096
KMNE 180255Z AUTO 02003KT 10SM OVC010 11/10 A3022 RMK AO2 T01100098
KMNE 180235Z AUTO 36006KT 10SM OVC010 11/10 A3021 RMK AO2 T01110101
KMNE 180215Z AUTO 00000KT 10SM OVC012 11/10 A3020 RMK AO2 T01120102
KMNE 180155Z AUTO 35003KT 10SM SCT004 BKN014 OVC070 11/11 A3021 RMK AO2 T01130105
KMNE 180135Z AUTO 00000KT 10SM SCT004 OVC070 12/11 A3020 RMK AO2 T01150106
KMNE 180115Z AUTO 00000KT 10SM SCT004 SCT015 OVC070 12/11 A3019 RMK AO2 T01150106
KMNE 180055Z AUTO 36003KT 10SM SCT008 OVC015 12/11 A3019 RMK AO2 T01160106
KMNE 180035Z AUTO 35004KT 10SM BKN011 OVC015 12/11 A3019 RMK AO2 T01160106
KMNE 180015Z AUTO 00000KT 10SM OVC010 12/11 A3018 RMK AO2 T01170107
KMNE 172355Z AUTO 35003KT 10SM SCT007 OVC010 12/11 A3017 RMK AO2 60007 T01170107 10120 20108
KMNE 172335Z AUTO 00000KT 10SM SCT006 OVC013 12/11 A3017 RMK AO2 T01180108
KMNE 172315Z AUTO 34003KT 10SM BKN005 OVC012 12/11 A3017 RMK AO2 T01190109
KMNE 172255Z AUTO 35003KT 10SM BKN005 OVC010 12/11 A3017 RMK AO2 T01180108
KMNE 172235Z AUTO 00000KT 10SM OVC007 12/11 A3017 RMK AO2 T01180108
KMNE 172215Z AUTO 00000KT 10SM OVC005 12/11 A3016 RMK AO2 T01180109
KMNE 172155Z AUTO 00000KT 10SM OVC005 12/11 A3015 RMK AO2 P0002 T01180109
KMNE 172135Z AUTO 00000KT 5SM BR OVC003 12/11 A3015 RMK AO2 P0001 T01160107
KMNE 172115Z AUTO 00000KT 2 1/2SM RA OVC005 12/11 A3015 RMK AO2 P0001 T01150105
KMNE 172055Z AUTO 00000KT 3SM DZ OVC003 11/11 A3014 RMK AO2 P0004 60005 T01140105
KMNE 172035Z AUTO 00000KT 1 3/4SM DZ OVC003 11/10 A3014 RMK AO2 P0002 T01130104
KMNE 172015Z AUTO 00000KT 3SM RA BKN003 BKN007 OVC034 11/10 A3013 RMK AO2 P0001 T01110101
KMNE 171955Z AUTO 13003KT 5SM -DZ SCT005 SCT019 OVC032 11/10 A3012 RMK AO2 P0001 T01100100
KMNE 171935Z AUTO 00000KT 4SM DZ SCT005 BKN021 OVC028 11/10 A3013 RMK AO2 P0001 T01100098
KMNE 171915Z AUTO 00000KT 4SM -RA BKN007 OVC023 11/10 A3014 RMK AO2 P0001 T01100097
KMNE 171855Z AUTO 33005KT 7SM DZ OVC005 11/10 A3015 RMK AO2 T01110097
KMNE 171835Z AUTO 36008KT 10SM OVC007 12/10 A3014 RMK AO2 T01150100
KMNE 171815Z AUTO 33009KT 10SM OVC007 12/10 A3014 RMK AO2 T01170101
KMNE 171755Z AUTO 33005KT 10SM OVC009 12/10 A3014 RMK AO2 T01180102 10121 20098
KMNE 171735Z AUTO 30005KT 10SM OVC009 12/10 A3014 RMK AO2 T01200102
KMNE 171715Z AUTO 32004KT 10SM OVC007 12/11 A3014 RMK AO2 T01200105
KMNE 171655Z AUTO 34003KT 10SM OVC005 12/11 A3013 RMK AO2 T01210110
KMNE 171635Z AUTO 15008KT 10SM OVC005 12/11 A3011 RMK AO2 T01150106
KMNE 171615Z AUTO 14003KT 10SM BKN003 OVC015 11/10 A3013 RMK AO2 T01110103
KMNE 171555Z AUTO 00000KT 5SM BR OVC003 11/10 A3015 RMK AO2 T01080100
KMNE 171535Z AUTO 31004KT 3SM BR OVC003 11/10 A3016 RMK AO2 T01070100
KMNE 171515Z AUTO 32003KT 2 1/2SM BR OVC003 11/10 A3015 RMK AO2 T01070100
KMNE 171455Z AUTO 32004KT 1 1/4SM BR OVC003 11/10 A3014 RMK AO2 T01060100
KMNE 171435Z AUTO 30006KT 3/4SM BR OVC003 11/10 A3014 RMK AO2 T01050098
KMNE 171415Z AUTO 30007KT 1SM BR OVC003 11/10 A3013 RMK AO2 T01050097
KMNE 171355Z AUTO 18003KT 3/4SM BR OVC003 11/10 A3009 RMK AO2 T01050096
KMNE 171335Z AUTO 00000KT 1SM BR OVC003 10/10 A3007 RMK AO2 T01020095
KMNE 171315Z AUTO 15003KT 2SM BR OVC003 10/09 A3007 RMK AO2 T01010092
KMNE 171255Z AUTO 20004KT 5SM BR OVC003 10/09 A3007 RMK AO2 T01010092
KMNE 171235Z AUTO 00000KT 4SM BR OVC003 10/09 A3007 RMK AO2 T01000091
KMNE 171215Z AUTO 00000KT 4SM BR OVC003 10/09 A3004 RMK AO2 T00980088
KMNE 171155Z AUTO 14005KT 5SM BR OVC005 10/09 A3004 RMK AO2 70002 T00980087 10104 20095
KMNE 171135Z AUTO 14006KT 4SM BR OVC005 10/09 A3004 RMK AO2 T00980086
KMNE 171115Z AUTO 14005KT 7SM OVC005 10/09 A3004 RMK AO2 T00980085
KMNE 171055Z AUTO 14003KT 7SM OVC007 10/08 A3005 RMK AO2 T00980083
KMNE 171035Z AUTO 14005KT 10SM OVC007 10/08 A3006 RMK AO2 T00980083
KMNE 171015Z AUTO 12003KT 10SM OVC007 10/08 A3005 RMK AO2 T00970082
KMNE 170955Z AUTO 11004KT 10SM OVC007 10/08 A3005 RMK AO2 T00960081
KMNE 170935Z AUTO 10003KT 10SM OVC007 10/08 A3006 RMK AO2 T00960080
KMNE 170915Z AUTO 10004KT 10SM OVC007 10/08 A3007 RMK AO2 T00950080
KMNE 170855Z AUTO 11005KT 10SM OVC009 10/08 A3007 RMK AO2 T00960080
KMNE 170835Z AUTO 10004KT 10SM OVC009 10/08 A3009 RMK AO2 T00970079
KMNE 170815Z AUTO 09004KT 10SM OVC009 10/08 A3011 RMK AO2 T00970078
KMNE 170755Z AUTO 00000KT 10SM OVC011 10/08 A3011 RMK AO2 T00970077
KMNE 170735Z AUTO 10005KT 10SM OVC011 10/08 A3012 RMK AO2 T00980077
KMNE 170715Z AUTO 09003KT 10SM OVC013 10/08 A3014 RMK AO2 T01000077
KMNE 170655Z AUTO 08004KT 10SM OVC013 10/08 A3015 RMK AO2 T01000077
KMNE 170635Z AUTO 08005KT 10SM OVC013 10/08 A3015 RMK AO2 T01010078
KMNE 170615Z AUTO 07004KT 10SM OVC013 10/08 A3016 RMK AO2 T01020078